This is the latest recevied weather packets stored in our database for station/object N7YET. If no packets are shown the sender has not sent any weather packets the latest 10 day(s).
| Time | Temp. | Humidity | Pressure | Rain* | Wind** | Luminosity | Snow |
|---|---|---|---|---|---|---|---|
| 1777902361 | 5° C | 33% | 1231.9 hPa | 0 mm | - | - | - |
| 1777902180 | 7.22° C | 48% | 1231.9 hPa | 0 mm | - | - | - |
| 1777901579 | 7.22° C | 49% | 1231.9 hPa | 0 mm | - | - | - |
| 1777900979 | 7.22° C | 49% | 1231.9 hPa | 0 mm | - | - | - |
| 1777900378 | 6.67° C | 50% | 1231.9 hPa | 0 mm | - | - | - |
| 1777899777 | 6.67° C | 51% | 1231.9 hPa | 0 mm | - | - | - |
| 1777899177 | 6.11° C | 51% | 1231.9 hPa | 0 mm | - | - | - |
| 1777898576 | 5.56° C | 51% | 1231.9 hPa | 0 mm | - | - | - |
| 1777897976 | 4.44° C | 51% | 1231.9 hPa | 0 mm | - | - | - |
| 1777897375 | 3.89° C | 51% | 1231.9 hPa | 0 mm | - | - | - |
| 1777896774 | 4.44° C | 51% | 1231.9 hPa | 0 mm | - | - | - |
| 1777896174 | 4.44° C | 51% | 1231.9 hPa | 0 mm | - | - | - |
| 1777895573 | 3.33° C | 53% | 1231.9 hPa | 0 mm | - | - | - |
| 1777894973 | 2.78° C | 54% | 1231.9 hPa | 0 mm | - | - | - |
| 1777894372 | 1.11° C | 51% | 1231.9 hPa | 0 mm | - | - | - |
| 1777893771 | 1.67° C | 51% | 1231.9 hPa | 0 mm | - | - | - |
| 1777893170 | 1.67° C | 51% | 1231.9 hPa | 0 mm | - | - | - |
| 1777892570 | 2.22° C | 51% | 1231.9 hPa | 0 mm | - | - | - |
| 1777891969 | 2.22° C | 51% | 1231.9 hPa | 0 mm | - | - | - |
| 1777891369 | 2.22° C | 51% | 1231.9 hPa | 0 mm | - | - | - |
| 1777890768 | 1.67° C | 50% | 1231.9 hPa | 0 mm | - | - | - |
| 1777890167 | 1.67° C | 49% | 1231.9 hPa | 0 mm | - | - | - |
| 1777889567 | 2.22° C | 50% | 1231.9 hPa | 0 mm | - | - | - |
| 1777888966 | 2.22° C | 49% | 1231.9 hPa | 0 mm | - | - | - |
| 1777888366 | 2.78° C | 50% | 1231.9 hPa | 0 mm | - | - | - |
* Rain latest hour (hover to see other rain measurements)
** Current wind speed in m/s (hover to see current wind gust speed)